createdAt,value
2018-09-25T00:02:16.789Z,99.90
2018-09-25T00:04:50.574Z,99.90
2018-09-25T00:07:24.245Z,99.90
2018-09-25T00:09:58.054Z,99.90
2018-09-25T00:12:31.713Z,99.90
2018-09-25T00:15:05.505Z,99.90
2018-09-25T00:17:39.192Z,99.90
2018-09-25T00:20:12.972Z,99.90
2018-09-25T00:22:46.782Z,99.90
2018-09-25T00:25:20.456Z,99.90
2018-09-25T00:27:54.242Z,99.90
2018-09-25T00:30:28.112Z,99.90
2018-09-25T00:33:02.061Z,99.90
2018-09-25T00:35:35.583Z,99.90
2018-09-25T00:38:09.381Z,99.90
2018-09-25T00:40:43.072Z,99.90
2018-09-25T00:43:16.741Z,99.90
2018-09-25T00:45:50.414Z,99.90
2018-09-25T00:48:24.220Z,99.90
2018-09-25T00:50:57.917Z,99.90
2018-09-25T00:53:31.875Z,99.90
2018-09-25T00:56:05.459Z,99.90
2018-09-25T00:58:39.250Z,99.90
2018-09-25T01:01:13.033Z,99.90
2018-09-25T01:03:46.828Z,99.90
2018-09-25T01:06:20.610Z,99.90
2018-09-25T01:08:54.393Z,99.90
2018-09-25T01:11:28.173Z,99.90
2018-09-25T01:14:01.968Z,99.90
2018-09-25T01:16:35.759Z,99.90
2018-09-25T01:19:09.449Z,99.90
2018-09-25T01:21:43.125Z,99.90
2018-09-25T01:24:16.909Z,99.90
2018-09-25T01:26:50.585Z,99.90
2018-09-25T01:29:24.360Z,99.90
2018-09-25T01:31:57.962Z,99.90
2018-09-25T01:34:31.728Z,99.90
2018-09-25T01:37:05.350Z,99.90
2018-09-25T01:39:39.098Z,99.90
2018-09-25T01:42:12.890Z,99.90
2018-09-25T01:44:46.675Z,99.90
2018-09-25T01:47:20.547Z,99.90
2018-09-25T01:49:54.237Z,99.90
2018-09-25T01:52:27.847Z,99.90
2018-09-25T01:55:01.647Z,99.90
2018-09-25T01:57:35.417Z,99.90
2018-09-25T02:00:09.182Z,99.90
2018-09-25T02:02:42.856Z,99.90
2018-09-25T02:05:16.635Z,99.90
2018-09-25T02:07:50.336Z,99.90
2018-09-25T02:10:24.001Z,99.90
2018-09-25T02:12:57.679Z,99.90
2018-09-25T02:15:31.483Z,99.90
2018-09-25T02:18:05.262Z,99.90
2018-09-25T02:20:39.053Z,99.90
2018-09-25T02:23:12.931Z,99.90
2018-09-25T02:25:46.716Z,99.90
2018-09-25T02:28:20.511Z,99.90
2018-09-25T02:30:54.076Z,99.90
2018-09-25T02:33:27.681Z,99.90
2018-09-25T02:36:01.372Z,99.90
2018-09-25T02:38:35.142Z,99.90
2018-09-25T02:41:08.829Z,99.90
2018-09-25T02:43:42.438Z,99.90
2018-09-25T02:46:16.191Z,99.90
2018-09-25T02:48:49.963Z,99.90
2018-09-25T02:51:23.652Z,99.90
2018-09-25T02:53:57.444Z,99.90
2018-09-25T02:56:31.217Z,99.90
2018-09-25T02:59:04.916Z,99.90
2018-09-25T03:01:38.693Z,99.90
2018-09-25T03:04:12.361Z,99.90
2018-09-25T03:06:46.074Z,99.90
2018-09-25T03:09:19.728Z,99.90
2018-09-25T03:11:53.509Z,99.90
2018-09-25T03:14:27.342Z,99.90
2018-09-25T03:17:01.080Z,99.90
2018-09-25T03:19:34.788Z,99.90
2018-09-25T03:22:08.598Z,99.90
2018-09-25T03:24:42.331Z,99.90
2018-09-25T03:27:16.137Z,99.90
2018-09-25T03:29:49.810Z,99.90
2018-09-25T03:32:23.517Z,99.90
2018-09-25T03:34:57.277Z,99.90
2018-09-25T03:37:31.175Z,99.90
2018-09-25T03:40:04.949Z,99.90
2018-09-25T03:42:38.744Z,99.90
2018-09-25T03:45:12.524Z,99.90
2018-09-25T03:47:46.328Z,99.90
2018-09-25T03:50:20.116Z,99.90
2018-09-25T03:52:53.823Z,99.90
2018-09-25T03:55:27.574Z,99.90
2018-09-25T03:58:01.254Z,99.90
2018-09-25T04:00:35.072Z,99.90
2018-09-25T04:03:08.736Z,99.90
2018-09-25T04:05:42.508Z,99.90
2018-09-25T04:08:16.296Z,99.90
2018-09-25T04:10:50.003Z,99.90
2018-09-25T04:13:23.771Z,99.90
2018-09-25T04:15:57.396Z,99.90
2018-09-25T04:18:31.245Z,99.90
2018-09-25T04:21:05.056Z,99.90
2018-09-25T04:23:38.811Z,99.90
2018-09-25T04:26:12.717Z,99.90
2018-09-25T04:28:46.383Z,99.90
2018-09-25T04:31:20.160Z,99.90
2018-09-25T04:33:53.856Z,99.90
2018-09-25T04:36:27.648Z,99.90
2018-09-25T04:39:01.261Z,99.90
2018-09-25T04:41:35.009Z,99.90
2018-09-25T04:44:08.599Z,99.90
2018-09-25T04:46:42.379Z,99.90
2018-09-25T04:49:16.154Z,99.90
2018-09-25T04:51:49.936Z,99.90
2018-09-25T04:54:23.519Z,99.90
2018-09-25T04:56:57.257Z,99.90
2018-09-25T04:59:30.915Z,99.90
2018-09-25T05:02:04.684Z,99.90
2018-09-25T05:04:41.780Z,99.90
2018-09-25T05:07:15.677Z,99.90
2018-09-25T05:09:49.536Z,99.90
2018-09-25T05:12:23.336Z,99.90
2018-09-25T05:14:57.020Z,99.90
2018-09-25T05:17:30.792Z,99.90
2018-09-25T05:20:04.656Z,99.90
2018-09-25T05:22:38.373Z,99.90
2018-09-25T05:25:12.509Z,99.90
2018-09-25T05:27:46.532Z,99.90
2018-09-25T05:30:20.122Z,99.90
2018-09-25T05:32:53.909Z,99.90
2018-09-25T05:35:27.724Z,99.90
2018-09-25T05:38:01.321Z,99.90
2018-09-25T05:40:35.065Z,99.90
2018-09-25T05:43:08.940Z,99.90
2018-09-25T05:45:42.796Z,99.90
2018-09-25T05:48:16.510Z,99.90
2018-09-25T05:50:50.203Z,99.90
2018-09-25T05:53:24.116Z,99.90
2018-09-25T05:55:58.012Z,99.90
2018-09-25T05:58:31.823Z,99.90
2018-09-25T06:01:05.840Z,99.90
2018-09-25T06:03:39.396Z,99.90
2018-09-25T06:06:13.116Z,99.90
2018-09-25T06:08:46.904Z,99.90
2018-09-25T06:11:20.693Z,99.90
2018-09-25T06:13:54.419Z,99.90
2018-09-25T06:16:29.110Z,99.90
2018-09-25T06:19:03.104Z,99.90
2018-09-25T06:21:36.792Z,99.90
2018-09-25T06:24:10.681Z,99.90
2018-09-25T06:26:44.655Z,99.90
2018-09-25T06:29:18.605Z,99.90
2018-09-25T06:31:52.475Z,99.90
2018-09-25T06:34:26.555Z,99.90
2018-09-25T06:37:00.430Z,99.90
2018-09-25T06:39:34.692Z,99.90
2018-09-25T06:42:09.074Z,99.90
2018-09-25T06:44:43.111Z,99.90
2018-09-25T06:47:17.401Z,99.90
2018-09-25T06:49:51.193Z,99.90
2018-09-25T06:52:25.298Z,99.90
2018-09-25T06:54:59.500Z,99.90
2018-09-25T06:57:33.428Z,99.90
2018-09-25T07:00:07.609Z,99.90
2018-09-25T07:02:41.513Z,99.90
2018-09-25T07:05:18.322Z,99.90
2018-09-25T07:07:52.433Z,99.90
2018-09-25T07:10:26.575Z,99.90
2018-09-25T07:13:00.442Z,99.90
2018-09-25T07:15:34.178Z,99.90
2018-09-25T07:18:08.234Z,99.90
2018-09-25T07:20:42.213Z,99.90
2018-09-25T07:23:16.295Z,99.90
2018-09-25T07:25:50.179Z,99.90
2018-09-25T07:28:24.162Z,99.90
2018-09-25T07:30:58.398Z,99.90
2018-09-25T07:33:32.607Z,99.90
2018-09-25T07:36:06.823Z,99.90
2018-09-25T07:38:41.686Z,99.90
2018-09-25T07:41:15.586Z,99.90
2018-09-25T07:43:49.530Z,99.90
2018-09-25T07:46:23.668Z,99.90
2018-09-25T07:48:57.525Z,99.90
2018-09-25T07:51:31.560Z,99.90
2018-09-25T07:54:05.701Z,99.90
2018-09-25T07:56:39.754Z,99.90
2018-09-25T07:59:13.658Z,99.90
2018-09-25T08:01:47.780Z,99.90
2018-09-25T08:04:21.558Z,99.90
2018-09-25T08:06:55.216Z,99.90
2018-09-25T08:09:29.027Z,99.90
2018-09-25T08:12:02.897Z,99.90
2018-09-25T08:14:36.697Z,99.90
2018-09-25T08:17:10.474Z,99.90
2018-09-25T08:19:44.073Z,99.90
2018-09-25T08:22:17.854Z,99.90
2018-09-25T08:24:51.623Z,99.90
2018-09-25T08:27:25.435Z,99.90
2018-09-25T08:29:59.135Z,99.90
2018-09-25T08:32:32.910Z,99.90
2018-09-25T08:35:06.735Z,99.90
2018-09-25T08:37:40.471Z,99.90
2018-09-25T08:40:14.152Z,99.90
2018-09-25T08:42:47.935Z,99.90
2018-09-25T08:45:21.756Z,99.90
2018-09-25T08:47:55.500Z,99.90
2018-09-25T08:50:29.097Z,99.90
2018-09-25T08:53:02.860Z,99.90
2018-09-25T08:55:36.639Z,99.90
2018-09-25T08:58:10.447Z,99.90
2018-09-25T09:00:44.246Z,99.90
2018-09-25T09:03:18.121Z,99.90
2018-09-25T09:05:51.792Z,99.90
2018-09-25T09:08:25.550Z,99.90
2018-09-25T09:10:59.209Z,99.90
2018-09-25T09:13:32.947Z,99.90
2018-09-25T09:16:06.743Z,99.90
2018-09-25T09:18:40.539Z,99.90
2018-09-25T09:21:14.326Z,99.90
2018-09-25T09:23:47.913Z,99.90
2018-09-25T09:26:21.680Z,99.90
2018-09-25T09:28:55.392Z,99.90
2018-09-25T09:31:29.047Z,99.90
2018-09-25T09:34:02.833Z,99.90
2018-09-25T09:36:36.424Z,99.90
2018-09-25T09:39:13.090Z,99.90
2018-09-25T09:41:47.202Z,99.90
2018-09-25T09:44:20.747Z,99.90
2018-09-25T09:46:54.435Z,99.90
2018-09-25T09:49:28.011Z,99.90
2018-09-25T09:52:01.796Z,99.90
2018-09-25T09:54:35.593Z,99.90
2018-09-25T09:57:09.267Z,99.90
2018-09-25T09:59:43.053Z,99.90
2018-09-25T10:02:16.637Z,99.90
2018-09-25T10:04:50.342Z,99.90
2018-09-25T10:07:24.025Z,99.90
2018-09-25T10:09:57.808Z,99.90
2018-09-25T10:12:31.610Z,99.90
2018-09-25T10:15:05.399Z,99.90
2018-09-25T10:17:39.173Z,99.90
2018-09-25T10:20:13.119Z,99.90
2018-09-25T10:22:46.844Z,99.90
2018-09-25T10:25:20.628Z,99.90
2018-09-25T10:27:54.422Z,99.90
2018-09-25T10:30:28.193Z,99.90
2018-09-25T10:33:01.873Z,99.90
2018-09-25T10:35:35.678Z,99.90
2018-09-25T10:38:09.462Z,99.90
2018-09-25T10:40:43.350Z,99.20
2018-09-25T10:43:16.917Z,98.50
2018-09-25T10:45:50.621Z,99.90
2018-09-25T10:48:24.397Z,99.40
2018-09-25T10:50:58.072Z,99.90
2018-09-25T10:53:31.862Z,98.90
2018-09-25T10:56:05.703Z,98.20
2018-09-25T10:58:39.355Z,96.90
2018-09-25T11:01:13.025Z,97.40
2018-09-25T11:03:46.634Z,97.10
2018-09-25T11:06:20.291Z,94.80
2018-09-25T11:08:54.332Z,94.10
2018-09-25T11:11:28.071Z,94.60
2018-09-25T11:14:01.866Z,95.80
2018-09-25T11:16:35.644Z,95.00
2018-09-25T11:19:09.227Z,93.90
2018-09-25T11:21:43.039Z,92.20
2018-09-25T11:24:18.673Z,91.50
2018-09-25T11:26:52.451Z,90.40
2018-09-25T11:29:26.132Z,90.60
2018-09-25T11:31:59.934Z,90.20
2018-09-25T11:34:33.716Z,86.40
2018-09-25T11:37:07.501Z,87.70
2018-09-25T11:39:41.283Z,88.30
2018-09-25T11:42:14.980Z,90.90
2018-09-25T11:44:48.761Z,90.70
2018-09-25T11:47:22.376Z,91.30
2018-09-25T11:49:56.284Z,84.30
2018-09-25T11:52:30.034Z,88.70
2018-09-25T11:55:03.619Z,90.40
2018-09-25T11:57:37.382Z,90.70
2018-09-25T12:00:11.202Z,87.30
2018-09-25T12:02:44.856Z,87.00
2018-09-25T12:05:18.558Z,89.10
2018-09-25T12:07:52.246Z,86.20
2018-09-25T12:10:25.916Z,84.10
2018-09-25T12:12:59.676Z,85.40
2018-09-25T12:15:33.513Z,82.80
2018-09-25T12:18:07.204Z,81.30
2018-09-25T12:20:41.014Z,78.90
2018-09-25T12:23:14.764Z,81.70
2018-09-25T12:25:48.339Z,77.00
2018-09-25T12:28:22.137Z,78.30
2018-09-25T12:30:55.824Z,74.70
2018-09-25T12:33:29.502Z,75.40
2018-09-25T12:36:03.100Z,73.10
2018-09-25T12:38:36.777Z,74.90
2018-09-25T12:41:10.553Z,75.60
2018-09-25T12:43:44.372Z,73.60
2018-09-25T12:46:18.095Z,74.70
2018-09-25T12:48:51.929Z,73.50
2018-09-25T12:51:25.592Z,73.20
2018-09-25T12:53:59.331Z,71.10
2018-09-25T12:56:33.089Z,72.60
2018-09-25T12:59:06.827Z,76.40
2018-09-25T13:01:40.612Z,74.00
2018-09-25T13:04:14.364Z,70.40
2018-09-25T13:06:48.164Z,75.10
2018-09-25T13:09:21.943Z,70.30
2018-09-25T13:11:55.734Z,72.20
2018-09-25T13:14:29.547Z,66.50
2018-09-25T13:17:03.241Z,66.20
2018-09-25T13:19:37.125Z,66.30
2018-09-25T13:22:11.055Z,65.50
2018-09-25T13:24:44.734Z,68.90
2018-09-25T13:27:18.543Z,72.70
2018-09-25T13:29:52.236Z,67.90
2018-09-25T13:32:26.120Z,67.20
2018-09-25T13:34:59.997Z,68.90
2018-09-25T13:37:33.678Z,70.00
2018-09-25T13:40:07.572Z,65.20
2018-09-25T13:42:41.397Z,64.50
2018-09-25T13:45:15.072Z,64.60
2018-09-25T13:47:48.843Z,64.00
2018-09-25T13:50:22.438Z,67.80
2018-09-25T13:52:56.100Z,67.70
2018-09-25T13:55:29.821Z,66.80
2018-09-25T13:58:10.591Z,69.50
2018-09-25T14:00:44.279Z,64.60
2018-09-25T14:03:18.076Z,63.50
2018-09-25T14:05:51.924Z,60.10
2018-09-25T14:08:25.620Z,62.30
2018-09-25T14:10:59.422Z,61.50
2018-09-25T14:13:32.991Z,63.10
2018-09-25T14:16:06.679Z,61.80
2018-09-25T14:18:40.410Z,61.30
2018-09-25T14:21:14.019Z,61.60
2018-09-25T14:23:47.723Z,62.70
2018-09-25T14:26:21.615Z,59.60
2018-09-25T14:28:55.384Z,59.20
2018-09-25T14:31:29.093Z,59.80
2018-09-25T14:34:02.866Z,61.90
2018-09-25T14:36:36.566Z,61.10
2018-09-25T14:39:12.230Z,59.30
2018-09-25T14:41:45.972Z,62.30
2018-09-25T14:44:19.641Z,59.20
2018-09-25T14:46:53.343Z,61.90
2018-09-25T14:49:27.112Z,62.30
2018-09-25T14:52:00.802Z,62.10
2018-09-25T14:54:34.466Z,60.40
2018-09-25T14:57:08.069Z,59.50
2018-09-25T14:59:41.758Z,60.70
2018-09-25T15:02:15.557Z,58.40
2018-09-25T15:04:49.333Z,59.50
2018-09-25T15:07:23.173Z,59.70
2018-09-25T15:09:56.953Z,59.70
2018-09-25T15:12:31.219Z,61.30
2018-09-25T15:15:05.006Z,63.20
2018-09-25T15:17:38.893Z,63.20
2018-09-25T15:20:12.608Z,64.70
2018-09-25T15:22:46.353Z,62.20
2018-09-25T15:25:20.244Z,62.50
2018-09-25T15:27:54.033Z,61.80
2018-09-25T15:30:27.743Z,62.60
2018-09-25T15:33:01.441Z,62.70
2018-09-25T15:35:35.338Z,62.50
2018-09-25T15:38:08.875Z,62.70
2018-09-25T15:40:42.541Z,63.10
2018-09-25T15:43:16.157Z,64.70
2018-09-25T15:45:50.008Z,65.90
2018-09-25T15:48:23.714Z,65.60
2018-09-25T15:50:57.507Z,66.80
2018-09-25T15:53:31.294Z,66.40
2018-09-25T15:56:04.976Z,65.00
2018-09-25T15:58:38.662Z,65.10
2018-09-25T16:01:12.485Z,67.50
2018-09-25T16:03:46.123Z,67.80
2018-09-25T16:06:19.713Z,68.20
2018-09-25T16:08:53.505Z,69.20
2018-09-25T16:11:27.193Z,68.00
2018-09-25T16:14:00.890Z,69.60
2018-09-25T16:16:34.453Z,71.50
2018-09-25T16:19:08.233Z,71.80
2018-09-25T16:21:41.919Z,70.40
2018-09-25T16:24:15.710Z,70.80
2018-09-25T16:26:49.469Z,69.80
2018-09-25T16:29:23.415Z,71.50
2018-09-25T16:31:57.263Z,71.00
2018-09-25T16:34:30.959Z,71.90
2018-09-25T16:37:04.672Z,73.10
2018-09-25T16:39:38.345Z,72.60
2018-09-25T16:42:12.033Z,74.70
2018-09-25T16:44:45.640Z,74.00
2018-09-25T16:47:19.421Z,73.40
2018-09-25T16:49:53.147Z,73.30
2018-09-25T16:52:26.940Z,73.40
2018-09-25T16:55:00.646Z,75.80
2018-09-25T16:57:34.255Z,74.60
2018-09-25T17:00:07.939Z,75.00
2018-09-25T17:02:41.597Z,74.60
2018-09-25T17:05:15.373Z,75.80
2018-09-25T17:07:49.050Z,75.30
2018-09-25T17:10:22.871Z,76.20
2018-09-25T17:12:56.460Z,76.70
2018-09-25T17:15:30.228Z,76.80
2018-09-25T17:18:04.118Z,77.40
2018-09-25T17:20:37.901Z,77.70
2018-09-25T17:23:11.680Z,78.70
2018-09-25T17:25:45.276Z,78.80
2018-09-25T17:28:19.064Z,79.80
2018-09-25T17:30:52.833Z,80.90
2018-09-25T17:33:26.644Z,82.50
2018-09-25T17:36:00.458Z,82.40
2018-09-25T17:38:34.188Z,83.40
2018-09-25T17:41:07.907Z,83.20
2018-09-25T17:43:41.695Z,84.40
2018-09-25T17:46:15.244Z,85.40
2018-09-25T17:48:49.052Z,87.80
2018-09-25T17:51:22.850Z,88.30
2018-09-25T17:53:56.595Z,89.40
2018-09-25T17:56:30.288Z,89.00
2018-09-25T17:59:03.978Z,90.50
2018-09-25T18:01:37.756Z,90.10
2018-09-25T18:04:11.583Z,90.20
2018-09-25T18:06:45.446Z,90.60
2018-09-25T18:09:19.222Z,91.00
2018-09-25T18:11:52.910Z,91.10
2018-09-25T18:14:26.729Z,91.30
2018-09-25T18:17:00.517Z,91.70
2018-09-25T18:19:34.185Z,91.70
2018-09-25T18:22:08.036Z,92.20
2018-09-25T18:24:41.765Z,92.50
2018-09-25T18:27:15.561Z,93.10
2018-09-25T18:29:49.242Z,93.30
2018-09-25T18:32:22.986Z,93.40
2018-09-25T18:34:56.633Z,94.80
2018-09-25T18:37:30.361Z,95.40
2018-09-25T18:40:04.206Z,94.80
2018-09-25T18:42:37.985Z,95.00
2018-09-25T18:45:11.992Z,95.70
2018-09-25T18:47:46.205Z,96.60
2018-09-25T18:50:20.199Z,96.50
2018-09-25T18:52:53.975Z,97.50
2018-09-25T18:55:28.161Z,97.60
2018-09-25T18:58:01.901Z,98.40
2018-09-25T19:00:37.346Z,99.50
2018-09-25T19:03:11.144Z,99.90
2018-09-25T19:05:45.296Z,99.70
2018-09-25T19:08:19.431Z,99.90
2018-09-25T19:10:53.394Z,99.90
2018-09-25T19:13:27.663Z,99.90
2018-09-25T19:16:01.589Z,99.90
2018-09-25T19:18:35.860Z,99.90
2018-09-25T19:21:09.925Z,99.90
2018-09-25T19:23:43.675Z,99.90
2018-09-25T19:26:17.959Z,99.90
2018-09-25T19:28:51.896Z,99.90
2018-09-25T19:31:25.716Z,99.90
2018-09-25T19:33:59.459Z,99.90
2018-09-25T19:36:33.176Z,99.90
2018-09-25T19:39:06.846Z,99.90
2018-09-25T19:41:40.534Z,99.90
2018-09-25T19:44:14.328Z,99.90
2018-09-25T19:46:47.822Z,99.90
2018-09-25T19:49:21.613Z,99.90
2018-09-25T19:51:55.424Z,99.90
2018-09-25T19:54:29.152Z,99.90
2018-09-25T19:57:02.837Z,99.90
2018-09-25T19:59:36.668Z,99.90
2018-09-25T20:02:10.404Z,99.90
2018-09-25T20:04:44.285Z,99.90
2018-09-25T20:07:18.096Z,99.90
2018-09-25T20:09:51.862Z,99.90
2018-09-25T20:12:25.715Z,99.90
2018-09-25T20:14:59.539Z,99.90
2018-09-25T20:17:33.239Z,99.90
2018-09-25T20:20:07.129Z,99.90
2018-09-25T20:22:40.857Z,99.90
2018-09-25T20:25:14.516Z,99.90
2018-09-25T20:27:48.304Z,99.90
2018-09-25T20:30:22.094Z,99.90
2018-09-25T20:32:56.494Z,99.90
2018-09-25T20:35:30.270Z,99.90
2018-09-25T20:38:03.953Z,99.90
2018-09-25T20:40:37.736Z,99.90
2018-09-25T20:43:11.617Z,99.90
2018-09-25T20:45:45.140Z,99.90
2018-09-25T20:48:18.845Z,99.90
2018-09-25T20:50:52.603Z,99.90
2018-09-25T20:53:26.397Z,99.90
2018-09-25T20:56:00.198Z,99.90
2018-09-25T20:58:33.955Z,99.90
2018-09-25T21:01:07.795Z,99.90
2018-09-25T21:03:41.576Z,99.90
2018-09-25T21:06:15.317Z,99.90
2018-09-25T21:08:49.020Z,99.90
2018-09-25T21:11:22.734Z,99.90
2018-09-25T21:13:56.484Z,99.90
2018-09-25T21:16:30.284Z,99.90
2018-09-25T21:19:04.288Z,99.90
2018-09-25T21:21:37.952Z,99.90
2018-09-25T21:24:11.952Z,99.90
2018-09-25T21:26:45.829Z,99.90
2018-09-25T21:29:19.538Z,99.90
2018-09-25T21:31:53.448Z,99.90
2018-09-25T21:34:27.279Z,99.90
2018-09-25T21:37:01.126Z,99.90
2018-09-25T21:39:35.089Z,99.90
2018-09-25T21:42:08.992Z,99.90
2018-09-25T21:44:42.780Z,99.90
2018-09-25T21:47:16.507Z,99.90
2018-09-25T21:49:50.349Z,99.90
2018-09-25T21:52:24.023Z,99.90
2018-09-25T21:54:57.722Z,99.90
2018-09-25T21:57:31.764Z,99.90
2018-09-25T22:00:05.299Z,99.90
2018-09-25T22:02:38.958Z,99.90
2018-09-25T22:05:12.842Z,99.90
2018-09-25T22:07:46.337Z,99.90
2018-09-25T22:10:20.137Z,99.90
2018-09-25T22:12:53.902Z,99.90
2018-09-25T22:15:27.640Z,99.90
2018-09-25T22:18:01.401Z,99.90
2018-09-25T22:20:35.284Z,99.90
2018-09-25T22:23:08.972Z,99.90
2018-09-25T22:25:42.673Z,99.90
2018-09-25T22:28:16.365Z,99.90
2018-09-25T22:30:50.064Z,99.90
2018-09-25T22:33:23.840Z,99.90
2018-09-25T22:35:57.498Z,99.90
2018-09-25T22:38:31.227Z,99.90
2018-09-25T22:41:04.830Z,99.90
2018-09-25T22:43:38.583Z,99.90
2018-09-25T22:46:12.353Z,99.90
2018-09-25T22:48:46.048Z,99.90
2018-09-25T22:51:19.792Z,99.90
2018-09-25T22:53:53.606Z,99.90
2018-09-25T22:56:27.406Z,99.90
2018-09-25T22:59:01.245Z,99.90
2018-09-25T23:01:34.983Z,99.90
2018-09-25T23:04:08.484Z,99.90
2018-09-25T23:06:42.331Z,99.90
2018-09-25T23:09:16.025Z,99.90
2018-09-25T23:11:49.714Z,99.90
2018-09-25T23:14:23.503Z,99.90
2018-09-25T23:16:57.157Z,99.90
2018-09-25T23:19:31.055Z,99.90
2018-09-25T23:22:04.632Z,99.90
2018-09-25T23:24:38.420Z,99.90
2018-09-25T23:27:12.418Z,99.90
2018-09-25T23:29:46.197Z,99.90
2018-09-25T23:32:19.892Z,99.90
2018-09-25T23:34:53.580Z,99.90
2018-09-25T23:37:27.165Z,99.90
2018-09-25T23:39:59.739Z,99.90
2018-09-25T23:42:35.560Z,99.90
2018-09-25T23:46:08.019Z,99.90
2018-09-25T23:48:48.076Z,99.90
2018-09-25T23:51:26.604Z,99.90
2018-09-25T23:54:04.881Z,99.90
2018-09-25T23:56:56.483Z,99.90
2018-09-25T23:59:30.174Z,99.90
